Time;durP1;ratioP1;P1;durP2;ratioP2;P2;SDS_P1;SDS_P2;PMS_P1;PMS_P2;Temp;Humidity;BMP_temperature;BMP_pressure;BME280_temperature;BME280_humidity;BME280_pressure;Samples;Min_cycle;Max_cycle;Signal;HPM_P1;HPM_P2
2023/08/18 00:01:50;;;;;;;9.13;4.37;;;;;;;;;;5049101;28;20041;-61
2023/08/18 00:04:16;;;;;;;6.93;4.43;;;;;;;;;;5049167;28;20041;-61
2023/08/18 00:06:42;;;;;;;6.33;4.20;;;;;;;;;;5049362;28;20053;-61
2023/08/18 00:09:08;;;;;;;7.33;4.80;;;;;;;;;;5054971;28;20048;-61
2023/08/18 00:11:34;;;;;;;10.17;5.60;;;;;;;;;;5067137;28;20048;-61
2023/08/18 00:14:00;;;;;;;13.93;5.80;;;;;;;;;;5056507;28;20052;-61
2023/08/18 00:16:26;;;;;;;8.33;5.37;;;;;;;;;;5048680;28;20052;-61
2023/08/18 00:18:52;;;;;;;8.37;4.80;;;;;;;;;;5048933;28;20147;-61
2023/08/18 00:21:18;;;;;;;8.20;4.47;;;;;;;;;;5063801;28;20592;-61
2023/08/18 00:23:44;;;;;;;9.90;4.97;;;;;;;;;;5065702;28;20418;-61
2023/08/18 00:26:10;;;;;;;12.23;5.90;;;;;;;;;;5069221;28;20044;-61
2023/08/18 00:28:36;;;;;;;13.07;5.30;;;;;;;;;;5068764;28;20052;-61
2023/08/18 00:31:02;;;;;;;9.97;5.50;;;;;;;;;;5068899;28;20495;-61
2023/08/18 00:33:28;;;;;;;9.30;5.67;;;;;;;;;;5068605;28;20415;-61
2023/08/18 00:35:54;;;;;;;10.27;5.67;;;;;;;;;;5068003;28;20074;-61
2023/08/18 00:38:20;;;;;;;10.73;4.70;;;;;;;;;;5068671;28;20425;-61
2023/08/18 00:40:46;;;;;;;12.90;4.77;;;;;;;;;;5068528;28;20051;-61
2023/08/18 00:43:12;;;;;;;10.20;4.73;;;;;;;;;;5068686;28;20498;-61
2023/08/18 00:45:38;;;;;;;14.50;5.20;;;;;;;;;;5068781;28;20083;-61
2023/08/18 00:48:05;;;;;;;9.17;4.27;;;;;;;;;;5068350;28;20052;-61
2023/08/18 00:50:31;;;;;;;9.07;4.50;;;;;;;;;;5068488;28;20101;-61
2023/08/18 00:52:59;;;;;;;7.73;4.03;;;;;;;;;;5067503;28;20047;-61
2023/08/18 00:55:28;;;;;;;7.37;4.30;;;;;;;;;;5068161;28;20190;-61
2023/08/18 00:57:57;;;;;;;7.73;4.43;;;;;;;;;;5068160;28;20047;-61
2023/08/18 01:00:24;;;;;;;7.73;3.87;;;;;;;;;;5068606;28;20087;-61
2023/08/18 01:02:52;;;;;;;10.77;4.93;;;;;;;;;;5068368;28;20396;-61
2023/08/18 01:05:19;;;;;;;10.77;4.27;;;;;;;;;;5067893;28;20498;-61
2023/08/18 01:07:46;;;;;;;10.50;5.03;;;;;;;;;;5068330;28;20083;-61
2023/08/18 01:10:12;;;;;;;11.83;4.83;;;;;;;;;;5067989;28;20490;-61
2023/08/18 01:12:56;;;;;;;11.00;4.23;;;;;;;;;;5068078;28;20420;-61
2023/08/18 01:15:26;;;;;;;9.07;4.17;;;;;;;;;;5068267;28;20072;-61
2023/08/18 01:17:56;;;;;;;8.77;4.57;;;;;;;;;;5068284;28;20051;-61
2023/08/18 01:20:23;;;;;;;7.77;3.90;;;;;;;;;;5067524;28;20593;-61
2023/08/18 01:22:58;;;;;;;9.90;4.77;;;;;;;;;;5066614;28;20560;-61
2023/08/18 01:25:25;;;;;;;11.37;5.53;;;;;;;;;;5048046;28;20056;-61
2023/08/18 01:27:52;;;;;;;10.13;4.17;;;;;;;;;;5047038;28;20095;-61
2023/08/18 01:30:18;;;;;;;12.03;4.17;;;;;;;;;;5046967;28;20438;-61
2023/08/18 01:32:53;;;;;;;11.83;4.13;;;;;;;;;;5049762;28;20048;-61
2023/08/18 01:35:19;;;;;;;9.23;4.60;;;;;;;;;;5052241;28;20040;-61
2023/08/18 01:37:47;;;;;;;8.60;4.97;;;;;;;;;;5051419;28;20128;-61
2023/08/18 01:40:14;;;;;;;9.23;5.97;;;;;;;;;;5051266;28;20106;-61
2023/08/18 01:42:40;;;;;;;7.93;4.13;;;;;;;;;;5052339;28;20446;-61
2023/08/18 01:45:08;;;;;;;10.27;4.03;;;;;;;;;;5071867;28;20047;-61
2023/08/18 01:47:34;;;;;;;7.93;3.97;;;;;;;;;;5071641;28;20049;-61
2023/08/18 01:50:00;;;;;;;11.03;4.43;;;;;;;;;;5059308;28;20048;-61
2023/08/18 01:52:26;;;;;;;8.50;4.13;;;;;;;;;;5051783;28;20059;-61
2023/08/18 01:54:52;;;;;;;10.23;4.57;;;;;;;;;;5051576;28;20486;-61
2023/08/18 01:57:18;;;;;;;9.13;3.97;;;;;;;;;;5061723;28;20055;-61
2023/08/18 01:59:44;;;;;;;11.53;4.40;;;;;;;;;;5071730;28;20076;-62
2023/08/18 02:02:10;;;;;;;7.90;4.40;;;;;;;;;;5070972;28;20086;-61
2023/08/18 02:04:36;;;;;;;8.53;4.13;;;;;;;;;;5071430;28;20056;-61
2023/08/18 02:07:02;;;;;;;10.07;4.17;;;;;;;;;;5071259;28;20045;-61
2023/08/18 02:09:28;;;;;;;10.33;4.00;;;;;;;;;;5070922;28;20036;-61
2023/08/18 02:11:54;;;;;;;10.23;3.57;;;;;;;;;;5071834;28;20044;-61
2023/08/18 02:14:20;;;;;;;10.50;3.70;;;;;;;;;;5071040;28;20044;-61
2023/08/18 02:16:46;;;;;;;9.50;4.40;;;;;;;;;;5071189;28;20086;-61
2023/08/18 02:19:12;;;;;;;11.10;4.30;;;;;;;;;;5066542;28;20073;-61
2023/08/18 02:21:38;;;;;;;8.83;3.73;;;;;;;;;;5051067;28;20094;-61
2023/08/18 02:24:04;;;;;;;8.97;3.73;;;;;;;;;;5050313;28;20041;-61
2023/08/18 02:26:30;;;;;;;7.40;3.50;;;;;;;;;;5051155;28;20055;-61
2023/08/18 02:28:56;;;;;;;10.03;3.90;;;;;;;;;;5050620;28;20515;-61
2023/08/18 02:31:22;;;;;;;11.57;3.60;;;;;;;;;;5051048;28;20052;-61
2023/08/18 02:33:48;;;;;;;7.80;3.53;;;;;;;;;;5050824;28;20033;-61
2023/08/18 02:36:14;;;;;;;7.53;3.77;;;;;;;;;;5050874;28;20052;-61
2023/08/18 02:38:40;;;;;;;11.07;3.70;;;;;;;;;;5050129;28;20461;-61
2023/08/18 02:41:07;;;;;;;8.30;3.60;;;;;;;;;;5049806;28;20055;-61
2023/08/18 02:43:33;;;;;;;17.37;4.37;;;;;;;;;;5050911;28;20060;-61
2023/08/18 02:46:00;;;;;;;6.47;3.07;;;;;;;;;;5050298;28;20461;-61
2023/08/18 02:48:27;;;;;;;8.23;3.43;;;;;;;;;;5050878;28;20048;-61
2023/08/18 02:51:01;;;;;;;10.00;4.00;;;;;;;;;;5050186;28;20171;-61
2023/08/18 02:53:27;;;;;;;9.53;3.33;;;;;;;;;;5050350;28;20485;-61
2023/08/18 02:55:54;;;;;;;8.30;3.40;;;;;;;;;;5050231;28;20134;-61
2023/08/18 02:58:20;;;;;;;12.97;3.90;;;;;;;;;;5050147;28;20131;-61
2023/08/18 03:00:46;;;;;;;7.27;3.43;;;;;;;;;;5055357;28;20128;-61
2023/08/18 03:03:12;;;;;;;8.77;3.70;;;;;;;;;;5070442;28;20043;-61
2023/08/18 03:05:38;;;;;;;9.03;4.03;;;;;;;;;;5069940;28;20411;-60
2023/08/18 03:08:04;;;;;;;9.03;3.93;;;;;;;;;;5069806;28;20470;-61
2023/08/18 03:10:30;;;;;;;8.40;3.83;;;;;;;;;;5070382;28;20192;-61
2023/08/18 03:12:56;;;;;;;9.70;4.00;;;;;;;;;;5070312;28;20495;-61
2023/08/18 03:15:22;;;;;;;7.17;3.80;;;;;;;;;;5069779;28;20055;-61
2023/08/18 03:17:49;;;;;;;8.83;3.87;;;;;;;;;;5070147;28;20045;-61
2023/08/18 03:20:15;;;;;;;11.87;4.03;;;;;;;;;;5054067;28;20045;-61
2023/08/18 03:22:41;;;;;;;8.83;3.93;;;;;;;;;;5049651;28;20045;-61
2023/08/18 03:25:07;;;;;;;7.73;4.13;;;;;;;;;;5063343;28;20043;-61
2023/08/18 03:27:34;;;;;;;9.50;4.43;;;;;;;;;;5051852;28;20041;-61
2023/08/18 03:30:00;;;;;;;7.70;3.70;;;;;;;;;;5049649;28;20370;-61
2023/08/18 03:32:26;;;;;;;8.87;4.40;;;;;;;;;;5049736;28;20495;-61
2023/08/18 03:34:54;;;;;;;12.30;4.63;;;;;;;;;;5049712;28;20048;-61
2023/08/18 03:37:20;;;;;;;8.63;4.17;;;;;;;;;;5049759;28;20649;-61
2023/08/18 03:39:46;;;;;;;9.77;4.50;;;;;;;;;;5049267;28;20472;-62
2023/08/18 03:42:12;;;;;;;8.17;4.27;;;;;;;;;;5049992;28;20083;-61
2023/08/18 03:44:38;;;;;;;11.27;4.70;;;;;;;;;;5049192;28;20037;-61
2023/08/18 03:47:04;;;;;;;8.07;5.20;;;;;;;;;;5049460;28;20044;-61
2023/08/18 03:49:30;;;;;;;9.33;5.37;;;;;;;;;;5049635;28;20049;-61
2023/08/18 03:51:56;;;;;;;11.07;5.17;;;;;;;;;;5049212;28;20097;-61
2023/08/18 03:54:22;;;;;;;12.40;6.23;;;;;;;;;;5052348;28;20051;-62
2023/08/18 03:56:48;;;;;;;10.93;6.17;;;;;;;;;;5062600;28;20156;-61
2023/08/18 03:59:14;;;;;;;8.80;4.93;;;;;;;;;;5069294;28;20047;-61
2023/08/18 04:01:40;;;;;;;14.20;5.57;;;;;;;;;;5069409;28;20495;-61
2023/08/18 04:04:06;;;;;;;14.23;6.40;;;;;;;;;;5068281;28;20080;-62
2023/08/18 04:06:32;;;;;;;9.77;5.33;;;;;;;;;;5069126;28;20059;-61
2023/08/18 04:09:06;;;;;;;12.17;5.90;;;;;;;;;;5069598;28;20498;-61
2023/08/18 04:11:32;;;;;;;9.23;5.43;;;;;;;;;;5069098;28;20547;-61
2023/08/18 04:13:58;;;;;;;16.60;6.63;;;;;;;;;;5069446;28;20090;-61
2023/08/18 04:16:24;;;;;;;17.00;7.13;;;;;;;;;;5068369;28;20083;-61
2023/08/18 04:18:50;;;;;;;10.60;6.40;;;;;;;;;;5062688;28;20045;-61
2023/08/18 04:21:16;;;;;;;11.90;6.67;;;;;;;;;;5049220;28;20578;-61
2023/08/18 04:23:42;;;;;;;15.23;6.60;;;;;;;;;;5052411;28;20037;-61
2023/08/18 04:26:08;;;;;;;11.23;6.10;;;;;;;;;;5068642;28;20101;-61
2023/08/18 04:28:34;;;;;;;14.53;6.07;;;;;;;;;;5067467;28;20468;-61
2023/08/18 04:31:00;;;;;;;19.40;7.27;;;;;;;;;;5068898;28;20052;-61
2023/08/18 04:33:26;;;;;;;10.80;5.73;;;;;;;;;;5069022;28;20048;-61
2023/08/18 04:35:52;;;;;;;12.43;6.00;;;;;;;;;;5068698;28;20041;-61
2023/08/18 04:38:18;;;;;;;14.27;6.43;;;;;;;;;;5068580;28;20045;-61
2023/08/18 04:40:44;;;;;;;11.37;5.93;;;;;;;;;;5067929;28;20274;-61
2023/08/18 04:43:10;;;;;;;12.27;6.70;;;;;;;;;;5068515;28;20036;-61
2023/08/18 04:45:36;;;;;;;12.87;5.77;;;;;;;;;;5068256;28;20048;-61
2023/08/18 04:48:02;;;;;;;11.53;6.20;;;;;;;;;;5068468;28;20410;-61
2023/08/18 04:50:28;;;;;;;12.53;6.97;;;;;;;;;;5067943;28;20058;-61
2023/08/18 04:52:54;;;;;;;12.87;6.50;;;;;;;;;;5068598;28;20395;-61
2023/08/18 04:55:20;;;;;;;17.10;6.97;;;;;;;;;;5050256;28;20154;-61
2023/08/18 04:57:46;;;;;;;11.77;6.20;;;;;;;;;;5052728;28;20521;-61
2023/08/18 05:00:12;;;;;;;9.17;6.27;;;;;;;;;;5049534;28;20040;-61
2023/08/18 05:02:38;;;;;;;11.37;6.57;;;;;;;;;;5048163;28;20044;-61
2023/08/18 05:05:05;;;;;;;11.93;6.50;;;;;;;;;;5047524;28;20049;-61
2023/08/18 05:07:31;;;;;;;9.93;5.70;;;;;;;;;;5047355;28;20056;-61
2023/08/18 05:09:57;;;;;;;11.23;6.10;;;;;;;;;;5047949;28;20064;-61
2023/08/18 05:12:23;;;;;;;9.97;6.60;;;;;;;;;;5047827;28;20454;-61
2023/08/18 05:14:49;;;;;;;11.83;6.43;;;;;;;;;;5059852;28;20060;-61
2023/08/18 05:17:15;;;;;;;10.10;6.30;;;;;;;;;;5052204;28;20047;-61
2023/08/18 05:19:41;;;;;;;12.40;6.57;;;;;;;;;;5067603;28;20139;-61
2023/08/18 05:22:07;;;;;;;15.30;6.60;;;;;;;;;;5067915;28;20048;-61
2023/08/18 05:24:33;;;;;;;12.03;5.67;;;;;;;;;;5068071;28;20051;-61
2023/08/18 05:26:59;;;;;;;13.77;6.00;;;;;;;;;;5068195;28;20048;-61
2023/08/18 05:29:25;;;;;;;9.47;5.67;;;;;;;;;;5055135;28;20044;-61
2023/08/18 05:31:51;;;;;;;11.27;5.83;;;;;;;;;;5051847;28;20037;-61
2023/08/18 05:34:17;;;;;;;7.77;5.60;;;;;;;;;;5047740;28;20499;-61
2023/08/18 05:36:43;;;;;;;8.47;5.13;;;;;;;;;;5047720;28;20080;-61
2023/08/18 05:39:09;;;;;;;12.83;6.70;;;;;;;;;;5061937;28;20479;-61
2023/08/18 05:41:35;;;;;;;9.97;5.37;;;;;;;;;;5065975;28;20453;-61
2023/08/18 05:44:01;;;;;;;10.77;5.60;;;;;;;;;;5047517;28;20419;-61
2023/08/18 05:46:27;;;;;;;7.97;5.53;;;;;;;;;;5047420;28;20049;-61
2023/08/18 05:48:53;;;;;;;7.63;5.33;;;;;;;;;;5047757;28;20041;-61
2023/08/18 05:51:19;;;;;;;9.13;5.40;;;;;;;;;;5047227;28;20494;-61
2023/08/18 05:53:45;;;;;;;12.20;5.70;;;;;;;;;;5047923;28;20395;-61
2023/08/18 05:56:11;;;;;;;11.60;6.30;;;;;;;;;;5047930;28;20080;-61
2023/08/18 05:58:37;;;;;;;13.87;5.87;;;;;;;;;;5047561;28;20135;-61
2023/08/18 06:01:03;;;;;;;20.17;8.17;;;;;;;;;;5047610;28;20044;-61
2023/08/18 06:03:30;;;;;;;8.70;5.67;;;;;;;;;;5047063;28;20072;-61
2023/08/18 06:05:59;;;;;;;10.67;5.73;;;;;;;;;;5047434;28;20057;-61
2023/08/18 06:08:25;;;;;;;10.93;5.60;;;;;;;;;;5047449;28;20506;-61
2023/08/18 06:10:52;;;;;;;10.57;5.30;;;;;;;;;;5047642;28;20037;-61
2023/08/18 06:13:18;;;;;;;12.53;5.17;;;;;;;;;;5045510;28;20128;-61
2023/08/18 06:15:44;;;;;;;8.73;5.17;;;;;;;;;;5048899;28;20053;-61
2023/08/18 06:18:10;;;;;;;9.73;6.03;;;;;;;;;;5067773;28;20048;-61
2023/08/18 06:20:36;;;;;;;12.33;5.70;;;;;;;;;;5061082;28;20635;-61
2023/08/18 06:23:02;;;;;;;8.80;6.30;;;;;;;;;;5056434;28;20036;-62
2023/08/18 06:25:28;;;;;;;10.63;6.40;;;;;;;;;;5070050;28;20040;-61
2023/08/18 06:27:54;;;;;;;10.17;4.90;;;;;;;;;;5050968;28;20578;-61
2023/08/18 06:30:20;;;;;;;10.07;6.07;;;;;;;;;;5051327;28;20056;-61
2023/08/18 06:32:47;;;;;;;10.57;5.90;;;;;;;;;;5051140;28;20049;-62
2023/08/18 06:35:13;;;;;;;10.03;5.83;;;;;;;;;;5051239;28;20041;-61
2023/08/18 06:37:39;;;;;;;10.93;5.77;;;;;;;;;;5050613;28;20459;-61
2023/08/18 06:40:05;;;;;;;9.33;6.33;;;;;;;;;;5062359;28;20538;-61
2023/08/18 06:42:31;;;;;;;8.97;5.50;;;;;;;;;;5064893;28;20037;-61
2023/08/18 06:44:57;;;;;;;7.63;5.53;;;;;;;;;;5051153;28;20044;-61
2023/08/18 06:47:23;;;;;;;11.93;6.43;;;;;;;;;;5053984;28;20471;-61
2023/08/18 06:49:49;;;;;;;9.47;5.53;;;;;;;;;;5050865;28;20131;-61
2023/08/18 06:52:15;;;;;;;10.93;6.27;;;;;;;;;;5068674;28;20140;-61
2023/08/18 06:54:41;;;;;;;11.73;6.00;;;;;;;;;;5070513;28;20072;-61
2023/08/18 06:57:07;;;;;;;14.70;6.70;;;;;;;;;;5064581;28;20095;-61
2023/08/18 06:59:33;;;;;;;10.70;5.67;;;;;;;;;;5050475;28;20060;-61
2023/08/18 07:01:59;;;;;;;13.50;6.23;;;;;;;;;;5050517;28;20040;-61
2023/08/18 07:04:25;;;;;;;13.20;6.10;;;;;;;;;;5055247;28;20040;-61
2023/08/18 07:06:51;;;;;;;15.17;5.97;;;;;;;;;;5069909;28;20079;-61
2023/08/18 07:09:17;;;;;;;10.50;5.43;;;;;;;;;;5070203;28;20098;-61
2023/08/18 07:11:43;;;;;;;13.17;6.97;;;;;;;;;;5070468;28;20048;-61
2023/08/18 07:14:09;;;;;;;11.20;6.67;;;;;;;;;;5064487;28;20128;-62
2023/08/18 07:16:35;;;;;;;11.20;6.47;;;;;;;;;;5050139;28;20053;-61
2023/08/18 07:19:01;;;;;;;11.47;6.37;;;;;;;;;;5053107;28;20052;-61
2023/08/18 07:21:27;;;;;;;12.30;6.20;;;;;;;;;;5069948;28;20055;-61
2023/08/18 07:23:53;;;;;;;13.80;7.40;;;;;;;;;;5069481;28;20040;-61
2023/08/18 07:26:19;;;;;;;11.37;7.00;;;;;;;;;;5067066;28;20097;-61
2023/08/18 07:28:45;;;;;;;13.13;7.30;;;;;;;;;;5049260;28;20115;-61
2023/08/18 07:31:11;;;;;;;13.57;7.30;;;;;;;;;;5048429;28;20466;-62
2023/08/18 07:33:37;;;;;;;16.40;8.37;;;;;;;;;;5049521;28;20119;-62
2023/08/18 07:36:03;;;;;;;12.63;7.30;;;;;;;;;;5049315;28;20049;-62
2023/08/18 07:38:38;;;;;;;11.63;7.33;;;;;;;;;;5048868;28;20068;-62
2023/08/18 07:41:05;;;;;;;14.27;7.40;;;;;;;;;;5049552;28;20055;-62
2023/08/18 07:43:31;;;;;;;12.47;6.33;;;;;;;;;;5050931;28;20614;-61
2023/08/18 07:45:57;;;;;;;12.30;6.73;;;;;;;;;;5059671;28;20076;-61
2023/08/18 07:48:23;;;;;;;14.13;6.90;;;;;;;;;;5058094;28;20506;-61
2023/08/18 07:50:50;;;;;;;20.07;7.23;;;;;;;;;;5068285;28;20079;-61
2023/08/18 07:53:16;;;;;;;12.50;6.23;;;;;;;;;;5068480;28;20090;-61
2023/08/18 07:55:42;;;;;;;13.57;6.53;;;;;;;;;;5067789;28;20040;-62
2023/08/18 07:58:08;;;;;;;12.43;5.87;;;;;;;;;;5068746;28;20736;-61
2023/08/18 08:00:34;;;;;;;14.70;6.63;;;;;;;;;;5067406;28;20045;-62
2023/08/18 08:03:00;;;;;;;11.97;6.27;;;;;;;;;;5068445;28;20048;-62
2023/08/18 08:05:26;;;;;;;10.43;5.97;;;;;;;;;;5068231;28;20048;-62
2023/08/18 08:07:52;;;;;;;11.07;5.97;;;;;;;;;;5068827;28;20045;-62
2023/08/18 08:10:18;;;;;;;11.67;5.73;;;;;;;;;;5068820;28;20056;-61
2023/08/18 08:12:45;;;;;;;8.53;5.20;;;;;;;;;;5066822;28;20048;-61
2023/08/18 08:15:13;;;;;;;14.30;5.73;;;;;;;;;;5068568;28;20040;-61
2023/08/18 08:17:39;;;;;;;10.53;6.00;;;;;;;;;;5068246;28;20098;-61
2023/08/18 08:20:27;;;;;;;9.93;6.03;;;;;;;;;;5068767;28;20044;-61
2023/08/18 08:22:52;;;;;;;11.00;5.47;;;;;;;;;;5068332;28;20099;-62
2023/08/18 08:25:18;;;;;;;11.03;6.23;;;;;;;;;;5068234;28;20484;-62
2023/08/18 08:27:45;;;;;;;11.77;7.03;;;;;;;;;;5068738;28;20045;-62
2023/08/18 08:30:12;;;;;;;11.50;5.50;;;;;;;;;;5068543;28;20084;-62
2023/08/18 08:32:38;;;;;;;13.57;6.50;;;;;;;;;;5068290;28;20507;-61
2023/08/18 08:35:04;;;;;;;12.63;6.03;;;;;;;;;;5068504;28;20128;-61
2023/08/18 08:37:30;;;;;;;10.93;5.90;;;;;;;;;;5068230;28;20045;-62
2023/08/18 08:39:56;;;;;;;9.73;5.70;;;;;;;;;;5067670;28;20093;-61
2023/08/18 08:42:25;;;;;;;9.23;6.40;;;;;;;;;;5068150;28;20560;-61
2023/08/18 08:44:51;;;;;;;9.27;6.17;;;;;;;;;;5068467;28;20048;-61
2023/08/18 08:47:18;;;;;;;11.50;6.37;;;;;;;;;;5068229;28;20039;-62
2023/08/18 08:49:46;;;;;;;10.67;5.67;;;;;;;;;;5067436;28;20051;-62
2023/08/18 08:52:16;;;;;;;10.70;5.50;;;;;;;;;;5068150;28;20041;-61
2023/08/18 08:54:53;;;;;;;10.17;5.47;;;;;;;;;;5068171;28;20040;-61
2023/08/18 08:57:22;;;;;;;10.07;5.33;;;;;;;;;;5068123;28;20292;-62
2023/08/18 08:59:48;;;;;;;11.50;5.87;;;;;;;;;;5068050;28;20105;-62
2023/08/18 09:02:14;;;;;;;10.50;6.03;;;;;;;;;;5067988;28;20155;-62
2023/08/18 09:04:40;;;;;;;10.77;5.83;;;;;;;;;;5067328;28;20048;-61
2023/08/18 09:07:07;;;;;;;10.07;5.90;;;;;;;;;;5067873;28;20083;-62
2023/08/18 09:09:33;;;;;;;10.90;5.83;;;;;;;;;;5068320;28;20044;-61
2023/08/18 09:12:02;;;;;;;9.63;5.32;;;;;;;;;;5067899;28;20048;-62
2023/08/18 09:14:28;;;;;;;8.73;6.03;;;;;;;;;;5067409;28;20052;-61
2023/08/18 09:16:54;;;;;;;10.07;5.53;;;;;;;;;;5067858;28;20497;-61
2023/08/18 09:19:22;;;;;;;9.48;5.22;;;;;;;;;;5068068;28;20045;-60
2023/08/18 09:21:50;;;;;;;9.37;6.13;;;;;;;;;;5067619;28;20163;-60
2023/08/18 09:24:16;;;;;;;8.85;6.15;;;;;;;;;;5067553;28;20192;-60
2023/08/18 09:26:42;;;;;;;9.87;6.43;;;;;;;;;;5067993;28;20040;-60
2023/08/18 09:29:09;;;;;;;11.00;6.40;;;;;;;;;;5067800;28;20558;-60
2023/08/18 09:31:35;;;;;;;12.63;6.50;;;;;;;;;;5067877;28;20037;-60
2023/08/18 09:34:02;;;;;;;11.00;6.80;;;;;;;;;;5067641;28;20098;-60
2023/08/18 09:36:28;;;;;;;10.20;6.80;;;;;;;;;;5067112;28;20154;-60
2023/08/18 09:38:54;;;;;;;13.33;8.00;;;;;;;;;;5067909;28;20070;-60
2023/08/18 09:41:20;;;;;;;11.10;7.13;;;;;;;;;;5067770;28;20063;-61
2023/08/18 09:43:46;;;;;;;11.77;7.17;;;;;;;;;;5067749;28;20041;-60
2023/08/18 09:46:13;;;;;;;13.17;7.47;;;;;;;;;;5067406;28;20048;-60
2023/08/18 09:48:39;;;;;;;14.17;8.00;;;;;;;;;;5067085;28;20080;-61
2023/08/18 09:51:09;;;;;;;12.20;7.47;;;;;;;;;;5067395;28;20056;-60
2023/08/18 09:53:36;;;;;;;14.20;7.40;;;;;;;;;;5069119;28;20504;-60
2023/08/18 09:56:13;;;;;;;13.73;7.73;;;;;;;;;;5071523;28;20052;-60
2023/08/18 09:58:44;;;;;;;16.47;8.73;;;;;;;;;;5071016;28;20076;-60
2023/08/18 10:01:12;;;;;;;13.18;8.65;;;;;;;;;;5071092;28;20083;-60
2023/08/18 10:03:41;;;;;;;13.00;7.45;;;;;;;;;;5071257;28;20051;-60
2023/08/18 10:06:08;;;;;;;16.97;8.93;;;;;;;;;;5071128;28;20296;-60
2023/08/18 10:08:35;;;;;;;14.77;8.83;;;;;;;;;;5071022;28;20048;-61
2023/08/18 10:11:01;;;;;;;15.20;9.07;;;;;;;;;;5070591;28;20062;-60
2023/08/18 10:13:29;;;;;;;16.17;9.20;;;;;;;;;;5071289;28;20041;-60
2023/08/18 10:15:55;;;;;;;14.63;8.70;;;;;;;;;;5070983;28;20499;-60
2023/08/18 10:18:23;;;;;;;19.40;9.73;;;;;;;;;;5070659;28;20410;-60
2023/08/18 10:20:53;;;;;;;18.43;9.93;;;;;;;;;;5071023;28;20048;-60
2023/08/18 10:23:19;;;;;;;14.47;9.10;;;;;;;;;;5071001;28;20040;-61
2023/08/18 10:25:45;;;;;;;13.98;8.10;;;;;;;;;;5070896;28;20086;-60
2023/08/18 10:28:21;;;;;;;14.60;8.03;;;;;;;;;;5070650;28;20036;-61
2023/08/18 10:31:19;;;;;;;16.92;8.07;;;;;;;;;;5070567;28;20616;-60
2023/08/18 10:33:49;;;;;;;12.27;8.75;;;;;;;;;;5057894;28;20049;-61
2023/08/18 10:36:19;;;;;;;13.80;9.00;;;;;;;;;;5070553;28;20048;-60
2023/08/18 10:38:45;;;;;;;13.85;7.97;;;;;;;;;;5070512;28;20044;-60
2023/08/18 10:41:11;;;;;;;14.35;9.30;;;;;;;;;;5070877;28;20451;-60
2023/08/18 10:43:52;;;;;;;12.60;8.43;;;;;;;;;;5070027;28;20045;-60
2023/08/18 10:46:18;;;;;;;12.30;9.38;;;;;;;;;;5070605;28;20521;-60
2023/08/18 10:48:45;;;;;;;10.98;8.75;;;;;;;;;;5060411;28;20059;-60
2023/08/18 10:51:11;;;;;;;13.15;10.05;;;;;;;;;;5050551;28;20041;-60
2023/08/18 10:53:38;;;;;;;12.95;9.65;;;;;;;;;;5050024;28;20051;-60
2023/08/18 10:56:04;;;;;;;13.80;9.70;;;;;;;;;;5050604;28;20049;-60
2023/08/18 10:58:31;;;;;;;14.88;10.10;;;;;;;;;;5070123;28;20044;-60
2023/08/18 11:00:57;;;;;;;14.68;10.05;;;;;;;;;;5070087;28;20094;-60
2023/08/18 11:03:25;;;;;;;14.43;8.68;;;;;;;;;;5069222;28;20165;-60
2023/08/18 11:05:51;;;;;;;13.32;7.90;;;;;;;;;;5067234;28;20060;-61
2023/08/18 11:08:18;;;;;;;11.25;7.72;;;;;;;;;;5070440;28;20048;-60
2023/08/18 11:10:44;;;;;;;10.40;8.02;;;;;;;;;;5070031;28;20049;-60
2023/08/18 11:13:22;;;;;;;15.18;9.18;;;;;;;;;;5070251;28;20049;-60
2023/08/18 11:15:50;;;;;;;12.40;8.45;;;;;;;;;;5069987;28;20056;-60
2023/08/18 11:18:16;;;;;;;16.83;7.97;;;;;;;;;;5069151;28;20056;-60
2023/08/18 11:20:42;;;;;;;13.00;8.32;;;;;;;;;;5070206;28;20525;-60
2023/08/18 11:23:09;;;;;;;12.55;8.20;;;;;;;;;;5070270;28;20048;-60
2023/08/18 11:25:36;;;;;;;10.57;8.35;;;;;;;;;;5069923;28;20040;-60
2023/08/18 11:28:02;;;;;;;11.20;7.75;;;;;;;;;;5070034;28;20529;-60
2023/08/18 11:30:28;;;;;;;10.10;7.22;;;;;;;;;;5070068;28;20208;-60
2023/08/18 11:32:54;;;;;;;10.35;7.85;;;;;;;;;;5068319;28;20452;-60
2023/08/18 11:35:21;;;;;;;10.63;7.03;;;;;;;;;;5070088;28;20071;-60
2023/08/18 11:37:49;;;;;;;14.18;8.70;;;;;;;;;;5069808;28;20044;-60
2023/08/18 11:40:17;;;;;;;13.13;8.50;;;;;;;;;;5068613;28;20044;-60
2023/08/18 11:42:44;;;;;;;10.35;8.25;;;;;;;;;;5069764;28;20067;-60
2023/08/18 11:45:11;;;;;;;11.85;9.27;;;;;;;;;;5069510;28;20040;-60
2023/08/18 11:47:38;;;;;;;14.68;9.40;;;;;;;;;;5069149;28;20051;-60
2023/08/18 11:50:05;;;;;;;10.65;8.55;;;;;;;;;;5069173;28;20045;-60
2023/08/18 11:52:47;;;;;;;11.88;9.50;;;;;;;;;;5069252;28;20040;-60
2023/08/18 11:55:14;;;;;;;12.20;8.35;;;;;;;;;;5069113;28;20399;-60
2023/08/18 11:57:41;;;;;;;10.88;9.77;;;;;;;;;;5069446;28;20048;-60
2023/08/18 12:00:11;;;;;;;11.52;10.32;;;;;;;;;;5068514;28;20076;-60
2023/08/18 12:02:40;;;;;;;12.63;9.68;;;;;;;;;;5068826;28;20087;-61
2023/08/18 12:05:06;;;;;;;12.20;9.52;;;;;;;;;;5068841;28;20402;-61
2023/08/18 12:07:34;;;;;;;14.15;9.63;;;;;;;;;;5068391;28;20710;-60
2023/08/18 12:10:00;;;;;;;13.38;9.57;;;;;;;;;;5069358;28;20082;-60
2023/08/18 12:12:26;;;;;;;10.27;9.20;;;;;;;;;;5068791;28;20448;-60
2023/08/18 12:14:52;;;;;;;12.40;9.98;;;;;;;;;;5068688;28;20040;-61
2023/08/18 12:17:18;;;;;;;10.95;9.18;;;;;;;;;;5067928;28;20097;-60
2023/08/18 12:19:44;;;;;;;12.15;10.02;;;;;;;;;;5068534;28;20048;-60
2023/08/18 12:22:10;;;;;;;12.23;10.90;;;;;;;;;;5068521;28;20052;-60
2023/08/18 12:24:36;;;;;;;13.45;10.20;;;;;;;;;;5068451;28;20392;-60
2023/08/18 12:27:02;;;;;;;12.65;10.70;;;;;;;;;;5068447;28;20090;-60
2023/08/18 12:29:28;;;;;;;14.30;10.18;;;;;;;;;;5068327;28;20044;-61
2023/08/18 12:31:54;;;;;;;14.93;10.85;;;;;;;;;;5068561;28;20036;-61
2023/08/18 12:34:20;;;;;;;12.95;9.75;;;;;;;;;;5068908;28;20041;-60
2023/08/18 12:36:46;;;;;;;12.00;10.70;;;;;;;;;;5067740;28;20044;-60
2023/08/18 12:39:12;;;;;;;12.77;10.90;;;;;;;;;;5068610;28;20048;-60
2023/08/18 12:41:38;;;;;;;14.38;10.15;;;;;;;;;;5068071;28;20097;-60
2023/08/18 12:44:09;;;;;;;11.85;10.15;;;;;;;;;;5068296;28;20558;-60
2023/08/18 12:46:35;;;;;;;11.55;9.52;;;;;;;;;;5068387;28;20403;-61
2023/08/18 12:49:04;;;;;;;10.98;9.88;;;;;;;;;;5067774;28;20059;-61
2023/08/18 12:51:30;;;;;;;12.73;10.88;;;;;;;;;;5067942;28;20064;-61
2023/08/18 12:53:56;;;;;;;12.35;11.15;;;;;;;;;;5068427;28;20050;-61
2023/08/18 12:56:22;;;;;;;13.15;11.32;;;;;;;;;;5068338;28;20044;-60
2023/08/18 12:58:48;;;;;;;13.05;11.65;;;;;;;;;;5067552;28;20431;-61
2023/08/18 13:01:14;;;;;;;11.65;10.40;;;;;;;;;;5068137;28;20049;-60
2023/08/18 13:03:41;;;;;;;13.80;10.38;;;;;;;;;;5067903;28;20059;-61
2023/08/18 13:06:07;;;;;;;11.25;10.15;;;;;;;;;;5068329;28;20418;-60
2023/08/18 13:08:33;;;;;;;11.60;9.65;;;;;;;;;;5067470;28;20044;-61
2023/08/18 13:10:59;;;;;;;12.20;11.00;;;;;;;;;;5068188;28;20055;-61
2023/08/18 13:13:25;;;;;;;12.60;9.55;;;;;;;;;;5068131;28;20528;-61
2023/08/18 13:15:51;;;;;;;14.35;9.82;;;;;;;;;;5067747;28;20044;-61
2023/08/18 13:18:17;;;;;;;12.02;10.30;;;;;;;;;;5067857;28;20048;-60
2023/08/18 13:20:43;;;;;;;10.23;9.20;;;;;;;;;;5067416;28;20093;-60
2023/08/18 13:23:09;;;;;;;12.25;11.10;;;;;;;;;;5067989;28;20049;-60
2023/08/18 13:25:35;;;;;;;13.23;10.68;;;;;;;;;;5050493;28;20049;-61
2023/08/18 13:28:03;;;;;;;12.23;9.13;;;;;;;;;;5048403;28;20076;-60
2023/08/18 13:30:29;;;;;;;12.02;8.63;;;;;;;;;;5051770;28;20076;-60
2023/08/18 13:32:55;;;;;;;8.43;7.57;;;;;;;;;;5051609;28;20139;-61
2023/08/18 13:35:21;;;;;;;9.43;7.88;;;;;;;;;;5051504;28;20049;-61
2023/08/18 13:37:47;;;;;;;11.65;7.25;;;;;;;;;;5069328;28;20067;-61
2023/08/18 13:40:13;;;;;;;10.50;8.43;;;;;;;;;;5072031;28;20040;-61
2023/08/18 13:42:39;;;;;;;10.75;8.85;;;;;;;;;;5071676;28;20498;-61
2023/08/18 13:45:06;;;;;;;10.65;8.48;;;;;;;;;;5071559;28;20422;-61
2023/08/18 13:47:32;;;;;;;8.68;7.88;;;;;;;;;;5071109;28;20133;-60
2023/08/18 13:49:58;;;;;;;10.75;8.38;;;;;;;;;;5071571;28;20512;-61
2023/08/18 13:52:24;;;;;;;11.73;7.97;;;;;;;;;;5071078;28;20097;-61
2023/08/18 13:54:50;;;;;;;9.15;8.35;;;;;;;;;;5071587;28;20049;-61
2023/08/18 13:57:17;;;;;;;10.20;9.20;;;;;;;;;;5071258;28;20410;-61
2023/08/18 13:59:44;;;;;;;11.02;9.73;;;;;;;;;;5069883;28;20053;-61
2023/08/18 14:02:10;;;;;;;11.52;10.05;;;;;;;;;;5051050;28;20411;-61
2023/08/18 14:04:37;;;;;;;11.98;8.77;;;;;;;;;;5051283;28;20128;-61
2023/08/18 14:07:03;;;;;;;9.85;8.77;;;;;;;;;;5049717;28;20095;-61
2023/08/18 14:09:29;;;;;;;10.25;9.25;;;;;;;;;;5051235;28;20091;-60
2023/08/18 14:11:55;;;;;;;9.25;8.45;;;;;;;;;;5050595;28;20045;-60
2023/08/18 14:14:21;;;;;;;9.40;8.50;;;;;;;;;;5051024;28;20499;-60
2023/08/18 14:16:47;;;;;;;8.23;7.40;;;;;;;;;;5058107;28;20087;-60
2023/08/18 14:19:16;;;;;;;13.05;9.88;;;;;;;;;;5069586;28;20604;-61
2023/08/18 14:21:44;;;;;;;10.07;9.02;;;;;;;;;;5070255;28;20091;-61
2023/08/18 14:24:10;;;;;;;9.57;8.00;;;;;;;;;;5065908;28;20124;-61
2023/08/18 14:26:36;;;;;;;9.13;7.93;;;;;;;;;;5050727;28;20099;-61
2023/08/18 14:29:02;;;;;;;7.90;6.80;;;;;;;;;;5050703;28;20056;-61
2023/08/18 14:31:29;;;;;;;9.18;7.70;;;;;;;;;;5050643;28;20518;-60